createdAt,value
2017-03-15T00:00:59.507Z,927.26
2017-03-15T00:02:12.737Z,927.24
2017-03-15T00:03:25.984Z,927.26
2017-03-15T00:04:39.232Z,927.22
2017-03-15T00:05:52.547Z,927.24
2017-03-15T00:07:05.806Z,927.24
2017-03-15T00:08:18.598Z,927.21
2017-03-15T00:09:31.871Z,927.25
2017-03-15T00:10:44.595Z,927.24
2017-03-15T00:11:57.866Z,927.29
2017-03-15T00:13:10.608Z,927.31
2017-03-15T00:14:23.868Z,927.32
2017-03-15T00:15:37.144Z,927.33
2017-03-15T00:16:49.901Z,927.37
2017-03-15T00:18:02.674Z,927.41
2017-03-15T00:19:15.425Z,927.41
2017-03-15T00:20:28.654Z,927.4
2017-03-15T00:21:41.413Z,927.42
2017-03-15T00:22:54.203Z,927.35
2017-03-15T00:24:06.971Z,927.35
2017-03-15T00:25:19.765Z,927.32
2017-03-15T00:26:33.015Z,927.34
2017-03-15T00:27:45.762Z,927.3
2017-03-15T00:28:59.020Z,927.34
2017-03-15T00:30:11.761Z,927.36
2017-03-15T00:31:25.070Z,927.37
2017-03-15T00:32:37.328Z,927.42
2017-03-15T00:33:50.618Z,927.43
2017-03-15T00:35:03.376Z,927.47
2017-03-15T00:36:16.609Z,927.46
2017-03-15T00:37:29.365Z,927.47
2017-03-15T00:38:41.620Z,927.46
2017-03-15T00:39:53.853Z,927.5
2017-03-15T00:41:06.610Z,927.54
2017-03-15T00:42:19.861Z,927.55
2017-03-15T00:43:33.119Z,927.55
2017-03-15T00:44:45.840Z,927.6
2017-03-15T00:45:59.097Z,927.62
2017-03-15T00:47:12.433Z,927.66
2017-03-15T00:48:25.224Z,927.68
2017-03-15T00:49:38.490Z,927.67
2017-03-15T00:50:50.718Z,927.71
2017-03-15T00:52:02.933Z,927.67
2017-03-15T00:53:16.207Z,927.69
2017-03-15T00:54:28.962Z,927.64
2017-03-15T00:55:42.203Z,927.62
2017-03-15T00:56:55.457Z,927.63
2017-03-15T00:58:08.696Z,927.58
2017-03-15T00:59:21.956Z,927.53
2017-03-15T01:00:34.710Z,927.57
2017-03-15T01:01:48.006Z,927.6
2017-03-15T01:03:01.257Z,927.58
2017-03-15T01:04:13.501Z,927.65
2017-03-15T01:05:26.760Z,927.61
2017-03-15T01:06:40.042Z,927.59
2017-03-15T01:07:53.304Z,927.56
2017-03-15T01:09:06.032Z,927.54
2017-03-15T01:10:19.264Z,927.51
2017-03-15T01:11:31.039Z,927.46
2017-03-15T01:12:44.695Z,927.42
2017-03-15T01:13:57.461Z,927.41
2017-03-15T01:15:10.761Z,927.39
2017-03-15T01:16:24.021Z,927.36
2017-03-15T01:17:37.312Z,927.28
2017-03-15T01:18:50.555Z,927.24
2017-03-15T01:20:03.816Z,927.19
2017-03-15T01:21:16.587Z,927.17
2017-03-15T01:22:29.863Z,927.16
2017-03-15T01:23:43.123Z,927.17
2017-03-15T01:24:55.875Z,927.19
2017-03-15T01:26:09.150Z,927.18
2017-03-15T01:27:22.437Z,927.15
2017-03-15T01:28:35.700Z,927.23
2017-03-15T01:29:47.920Z,927.34
2017-03-15T01:31:00.139Z,927.35
2017-03-15T01:32:13.408Z,927.41
2017-03-15T01:33:26.689Z,927.45
2017-03-15T01:34:39.953Z,927.45
2017-03-15T01:35:52.197Z,927.48
2017-03-15T01:37:04.955Z,927.48
2017-03-15T01:38:17.191Z,927.5
2017-03-15T01:39:29.960Z,927.52
2017-03-15T01:40:43.261Z,927.55
2017-03-15T01:41:56.562Z,927.5
2017-03-15T01:43:09.299Z,927.53
2017-03-15T01:44:22.563Z,927.51
2017-03-15T01:45:35.841Z,927.54
2017-03-15T01:46:48.584Z,927.56
2017-03-15T01:48:00.295Z,927.54
2017-03-15T01:49:13.605Z,927.59
2017-03-15T01:50:26.868Z,927.59
2017-03-15T01:51:40.150Z,927.59
2017-03-15T01:52:53.418Z,927.59
2017-03-15T01:54:06.659Z,927.61
2017-03-15T01:55:19.927Z,927.62
2017-03-15T01:56:33.189Z,927.61
2017-03-15T01:57:45.951Z,927.67
2017-03-15T01:58:59.228Z,927.65
2017-03-15T02:00:12.477Z,927.68
2017-03-15T02:01:25.233Z,927.68
2017-03-15T02:02:38.485Z,927.59
2017-03-15T02:03:51.229Z,927.61
2017-03-15T02:05:03.465Z,927.64
2017-03-15T02:06:16.206Z,927.64
2017-03-15T02:07:29.539Z,927.63
2017-03-15T02:08:41.765Z,927.62
2017-03-15T02:09:54.060Z,927.61
2017-03-15T02:11:05.773Z,927.62
2017-03-15T02:12:19.020Z,927.64
2017-03-15T02:13:31.764Z,927.63
2017-03-15T02:14:45.022Z,927.64
2017-03-15T02:15:57.776Z,927.62
2017-03-15T02:17:10.507Z,927.58
2017-03-15T02:18:23.258Z,927.54
2017-03-15T02:19:36.630Z,927.52
2017-03-15T02:20:49.369Z,927.48
2017-03-15T02:22:02.632Z,927.49
2017-03-15T02:23:15.921Z,927.45
2017-03-15T02:24:29.160Z,927.46
2017-03-15T02:25:41.952Z,927.5
2017-03-15T02:26:54.693Z,927.47
2017-03-15T02:28:07.477Z,927.49
2017-03-15T02:29:21.368Z,927.47
2017-03-15T02:30:34.087Z,927.43
2017-03-15T02:31:46.831Z,927.38
2017-03-15T02:33:00.055Z,927.4
2017-03-15T02:34:13.287Z,927.39
2017-03-15T02:35:26.046Z,927.37
2017-03-15T02:36:38.297Z,927.41
2017-03-15T02:37:50.554Z,927.41
2017-03-15T02:39:03.295Z,927.38
2017-03-15T02:40:16.583Z,927.4
2017-03-15T02:41:29.977Z,927.39
2017-03-15T02:42:42.237Z,927.34
2017-03-15T02:43:54.672Z,927.37
2017-03-15T02:45:07.918Z,927.31
2017-03-15T02:46:20.633Z,927.29
2017-03-15T02:47:33.356Z,927.27
2017-03-15T02:48:46.638Z,927.26
2017-03-15T02:49:59.894Z,927.3
2017-03-15T02:51:12.110Z,927.31
2017-03-15T02:52:25.383Z,927.34
2017-03-15T02:53:38.129Z,927.36
2017-03-15T02:54:51.354Z,927.36
2017-03-15T02:56:03.570Z,927.39
2017-03-15T02:57:16.810Z,927.43
2017-03-15T02:58:29.532Z,927.37
2017-03-15T02:59:42.275Z,927.35
2017-03-15T03:00:55.077Z,927.36
2017-03-15T03:02:07.352Z,927.39
2017-03-15T03:03:20.078Z,927.33
2017-03-15T03:04:32.805Z,927.29
2017-03-15T03:05:45.527Z,927.26
2017-03-15T03:06:58.256Z,927.25
2017-03-15T03:08:11.496Z,927.23
2017-03-15T03:09:24.784Z,927.23
2017-03-15T03:10:37.565Z,927.26
2017-03-15T03:11:50.285Z,927.27
2017-03-15T03:13:03.519Z,927.23
2017-03-15T03:14:16.771Z,927.24
2017-03-15T03:15:30.043Z,927.22
2017-03-15T03:16:43.273Z,927.23
2017-03-15T03:17:56.558Z,927.23
2017-03-15T03:19:09.336Z,927.24
2017-03-15T03:20:22.585Z,927.26
2017-03-15T03:21:35.300Z,927.27
2017-03-15T03:22:48.032Z,927.24
2017-03-15T03:24:00.289Z,927.27
2017-03-15T03:25:13.026Z,927.27
2017-03-15T03:26:25.765Z,927.3
2017-03-15T03:27:39.019Z,927.29
2017-03-15T03:28:52.273Z,927.3
2017-03-15T03:30:05.532Z,927.25
2017-03-15T03:31:18.332Z,927.25
2017-03-15T03:32:31.084Z,927.26
2017-03-15T03:33:44.335Z,927.31
2017-03-15T03:34:57.579Z,927.28
2017-03-15T03:36:10.808Z,927.28
2017-03-15T03:37:23.568Z,927.31
2017-03-15T03:38:36.837Z,927.28
2017-03-15T03:39:49.615Z,927.28
2017-03-15T03:41:02.855Z,927.24
2017-03-15T03:42:15.607Z,927.25
2017-03-15T03:43:28.872Z,927.22
2017-03-15T03:44:41.620Z,927.27
2017-03-15T03:45:54.960Z,927.21
2017-03-15T03:47:08.225Z,927.23
2017-03-15T03:48:20.953Z,927.23
2017-03-15T03:49:34.197Z,927.21
2017-03-15T03:50:47.487Z,927.24
2017-03-15T03:52:00.730Z,927.22
2017-03-15T03:53:12.951Z,927.21
2017-03-15T03:54:26.183Z,927.25
2017-03-15T03:55:38.429Z,927.2
2017-03-15T03:56:51.702Z,927.13
2017-03-15T03:58:04.986Z,927.19
2017-03-15T03:59:17.750Z,927.16
2017-03-15T04:00:30.495Z,927.13
2017-03-15T04:01:42.762Z,927.11
2017-03-15T04:02:55.515Z,927.09
2017-03-15T04:04:07.726Z,927.03
2017-03-15T04:05:20.975Z,927
2017-03-15T04:06:33.740Z,927
2017-03-15T04:07:47.019Z,927.01
2017-03-15T04:08:59.738Z,927
2017-03-15T04:10:12.988Z,927
2017-03-15T04:11:26.284Z,926.96
2017-03-15T04:12:39.574Z,926.95
2017-03-15T04:13:52.869Z,926.95
2017-03-15T04:15:06.125Z,926.94
2017-03-15T04:16:19.394Z,926.93
2017-03-15T04:17:32.639Z,926.92
2017-03-15T04:18:45.394Z,926.91
2017-03-15T04:19:58.135Z,926.91
2017-03-15T04:21:10.878Z,926.89
2017-03-15T04:22:24.149Z,926.89
2017-03-15T04:23:36.909Z,926.87
2017-03-15T04:24:50.159Z,926.84
2017-03-15T04:26:03.441Z,926.81
2017-03-15T04:27:16.154Z,926.8
2017-03-15T04:28:29.384Z,926.8
2017-03-15T04:29:42.685Z,926.79
2017-03-15T04:30:55.449Z,926.76
2017-03-15T04:32:08.173Z,926.74
2017-03-15T04:33:20.897Z,926.72
2017-03-15T04:34:33.709Z,926.67
2017-03-15T04:35:46.449Z,926.7
2017-03-15T04:36:59.712Z,926.72
2017-03-15T04:38:12.967Z,926.73
2017-03-15T04:39:25.714Z,926.71
2017-03-15T04:40:38.477Z,926.74
2017-03-15T04:41:51.714Z,926.74
2017-03-15T04:43:04.934Z,926.73
2017-03-15T04:44:18.212Z,926.7
2017-03-15T04:45:31.460Z,926.7
2017-03-15T04:46:44.219Z,926.72
2017-03-15T04:47:57.441Z,926.7
2017-03-15T04:49:10.204Z,926.71
2017-03-15T04:50:23.457Z,926.74
2017-03-15T04:51:36.707Z,926.75
2017-03-15T04:52:49.951Z,926.75
2017-03-15T04:54:03.239Z,926.76
2017-03-15T04:55:16.551Z,926.73
2017-03-15T04:56:29.833Z,926.72
2017-03-15T04:57:42.559Z,926.71
2017-03-15T04:58:55.307Z,926.71
2017-03-15T05:00:08.568Z,926.75
2017-03-15T05:01:21.833Z,926.64
2017-03-15T05:02:35.107Z,926.67
2017-03-15T05:03:47.825Z,926.68
2017-03-15T05:05:00.561Z,926.66
2017-03-15T05:06:13.805Z,926.73
2017-03-15T05:07:26.558Z,926.68
2017-03-15T05:08:38.787Z,926.71
2017-03-15T05:09:52.029Z,926.68
2017-03-15T05:11:05.261Z,926.68
2017-03-15T05:12:18.509Z,926.68
2017-03-15T05:13:31.303Z,926.66
2017-03-15T05:14:44.561Z,926.6
2017-03-15T05:15:57.966Z,926.64
2017-03-15T05:17:11.217Z,926.63
2017-03-15T05:18:23.401Z,926.62
2017-03-15T05:19:36.153Z,926.57
2017-03-15T05:20:48.904Z,926.54
2017-03-15T05:22:02.220Z,926.53
2017-03-15T05:23:15.468Z,926.52
2017-03-15T05:24:28.770Z,926.44
2017-03-15T05:25:42.006Z,926.48
2017-03-15T05:26:54.747Z,926.4
2017-03-15T05:28:06.976Z,926.39
2017-03-15T05:29:19.715Z,926.37
2017-03-15T05:30:31.464Z,926.32
2017-03-15T05:31:44.696Z,926.28
2017-03-15T05:32:56.937Z,926.3
2017-03-15T05:34:10.190Z,926.27
2017-03-15T05:35:22.914Z,926.29
2017-03-15T05:36:35.688Z,926.27
2017-03-15T05:37:48.439Z,926.22
2017-03-15T05:39:00.671Z,926.24
2017-03-15T05:40:13.418Z,926.24
2017-03-15T05:41:26.713Z,926.19
2017-03-15T05:42:39.463Z,926.19
2017-03-15T05:43:52.216Z,926.11
2017-03-15T05:45:05.581Z,926.1
2017-03-15T05:46:18.956Z,926.08
2017-03-15T05:47:31.710Z,926.06
2017-03-15T05:48:45.024Z,926.06
2017-03-15T05:49:58.289Z,926.04
2017-03-15T05:51:10.505Z,925.98
2017-03-15T05:52:23.241Z,926
2017-03-15T05:53:36.499Z,925.98
2017-03-15T05:54:48.732Z,926.01
2017-03-15T05:56:00.950Z,926.01
2017-03-15T05:57:13.722Z,926
2017-03-15T05:58:27.012Z,926.03
2017-03-15T05:59:39.251Z,926.06
2017-03-15T06:00:52.524Z,926.06
2017-03-15T06:02:05.302Z,926.04
2017-03-15T06:03:18.068Z,926.06
2017-03-15T06:04:30.798Z,926.07
2017-03-15T06:05:44.063Z,926.01
2017-03-15T06:06:57.349Z,926.06
2017-03-15T06:08:10.602Z,926.06
2017-03-15T06:09:23.351Z,926.03
2017-03-15T06:10:36.079Z,926.04
2017-03-15T06:11:48.297Z,925.99
2017-03-15T06:13:01.056Z,926.01
2017-03-15T06:14:13.346Z,926.01
2017-03-15T06:15:26.759Z,925.99
2017-03-15T06:16:39.583Z,925.94
2017-03-15T06:17:53.558Z,926.01
2017-03-15T06:19:06.994Z,925.98
2017-03-15T06:20:20.460Z,926.01
2017-03-15T06:21:34.423Z,926.02
2017-03-15T06:22:48.479Z,926.03
2017-03-15T06:24:01.315Z,926.04
2017-03-15T06:25:15.282Z,926.02
2017-03-15T06:26:28.694Z,926.03
2017-03-15T06:27:41.555Z,926.04
2017-03-15T06:28:55.536Z,926.06
2017-03-15T06:30:08.945Z,925.98
2017-03-15T06:31:22.911Z,925.97
2017-03-15T06:32:36.861Z,926
2017-03-15T06:33:50.307Z,925.97
2017-03-15T06:35:03.700Z,925.99
2017-03-15T06:36:17.097Z,926
2017-03-15T06:37:31.045Z,926.01
2017-03-15T06:38:44.477Z,925.98
2017-03-15T06:39:57.879Z,925.99
2017-03-15T06:41:10.706Z,926.01
2017-03-15T06:42:23.546Z,926.02
2017-03-15T06:43:37.540Z,925.98
2017-03-15T06:44:50.401Z,925.94
2017-03-15T06:46:04.437Z,925.96
2017-03-15T06:47:17.925Z,925.94
2017-03-15T06:48:31.878Z,925.93
2017-03-15T06:49:45.286Z,925.96
2017-03-15T06:50:59.249Z,925.92
2017-03-15T06:52:13.234Z,925.94
2017-03-15T06:53:27.258Z,925.96
2017-03-15T06:54:40.133Z,925.96
2017-03-15T06:55:53.532Z,925.99
2017-03-15T06:57:06.924Z,925.97
2017-03-15T06:58:19.792Z,925.95
2017-03-15T06:59:33.211Z,925.97
2017-03-15T07:00:47.218Z,925.98
2017-03-15T07:02:01.223Z,925.91
2017-03-15T07:03:14.643Z,925.97
2017-03-15T07:04:28.642Z,925.93
2017-03-15T07:05:42.621Z,925.94
2017-03-15T07:06:56.039Z,925.91
2017-03-15T07:08:09.451Z,925.91
2017-03-15T07:09:23.440Z,925.9
2017-03-15T07:10:37.465Z,925.87
2017-03-15T07:11:51.500Z,925.84
2017-03-15T07:13:05.490Z,925.84
2017-03-15T07:14:19.475Z,925.83
2017-03-15T07:15:33.439Z,925.84
2017-03-15T07:16:46.840Z,925.85
2017-03-15T07:18:00.281Z,925.83
2017-03-15T07:19:13.124Z,925.84
2017-03-15T07:20:26.562Z,925.84
2017-03-15T07:21:39.463Z,925.85
2017-03-15T07:22:53.461Z,925.81
2017-03-15T07:24:06.885Z,925.85
2017-03-15T07:25:19.740Z,925.83
2017-03-15T07:26:32.058Z,925.84
2017-03-15T07:27:44.919Z,925.86
2017-03-15T07:28:58.914Z,925.86
2017-03-15T07:30:12.332Z,925.82
2017-03-15T07:31:26.327Z,925.89
2017-03-15T07:32:40.314Z,925.91
2017-03-15T07:33:53.762Z,925.86
2017-03-15T07:35:07.170Z,925.97
2017-03-15T07:36:21.154Z,925.97
2017-03-15T07:37:34.569Z,925.94
2017-03-15T07:38:47.991Z,925.95
2017-03-15T07:40:01.371Z,925.94
2017-03-15T07:41:15.359Z,925.93
2017-03-15T07:42:29.379Z,925.95
2017-03-15T07:43:43.374Z,925.93
2017-03-15T07:44:56.811Z,925.97
2017-03-15T07:46:10.221Z,925.98
2017-03-15T07:47:24.172Z,926
2017-03-15T07:48:38.149Z,926.07
2017-03-15T07:49:52.146Z,926.11
2017-03-15T07:51:04.421Z,926.13
2017-03-15T07:52:18.449Z,926.15
2017-03-15T07:53:32.401Z,926.16
2017-03-15T07:54:45.833Z,926.17
2017-03-15T07:55:59.263Z,926.16
2017-03-15T07:57:13.222Z,926.18
2017-03-15T07:58:26.609Z,926.19
2017-03-15T07:59:40.576Z,926.22
2017-03-15T08:00:54.001Z,926.24
2017-03-15T08:02:07.398Z,926.26
2017-03-15T08:03:20.833Z,926.23
2017-03-15T08:04:34.809Z,926.28
2017-03-15T08:05:48.785Z,926.3
2017-03-15T08:07:02.297Z,926.31
2017-03-15T08:08:16.279Z,926.27
2017-03-15T08:09:29.706Z,926.3
2017-03-15T08:10:42.544Z,926.29
2017-03-15T08:11:56.523Z,926.28
2017-03-15T08:13:10.489Z,926.28
2017-03-15T08:14:23.897Z,926.26
2017-03-15T08:15:37.909Z,926.24
2017-03-15T08:16:51.850Z,926.24
2017-03-15T08:18:05.818Z,926.26
2017-03-15T08:19:19.218Z,926.29
2017-03-15T08:20:32.063Z,926.34
2017-03-15T08:21:46.017Z,926.36
2017-03-15T08:22:59.407Z,926.27
2017-03-15T08:24:12.958Z,926.35
2017-03-15T08:25:26.934Z,926.29
2017-03-15T08:26:40.945Z,926.29
2017-03-15T08:27:54.924Z,926.33
2017-03-15T08:29:08.956Z,926.34
2017-03-15T08:30:22.938Z,926.4
2017-03-15T08:31:36.944Z,926.38
2017-03-15T08:32:50.359Z,926.33
2017-03-15T08:34:03.755Z,926.4
2017-03-15T08:35:17.793Z,926.41
2017-03-15T08:36:31.230Z,926.46
2017-03-15T08:37:45.184Z,926.45
2017-03-15T08:38:59.160Z,926.47
2017-03-15T08:40:13.170Z,926.48
2017-03-15T08:41:27.144Z,926.5
2017-03-15T08:42:41.098Z,926.55
2017-03-15T08:43:55.088Z,926.54
2017-03-15T08:45:08.510Z,926.59
2017-03-15T08:46:22.471Z,926.59
2017-03-15T08:47:35.308Z,926.63
2017-03-15T08:48:48.759Z,926.59
2017-03-15T08:50:02.725Z,926.55
2017-03-15T08:51:16.703Z,926.54
2017-03-15T08:52:30.674Z,926.58
2017-03-15T08:53:44.644Z,926.59
2017-03-15T08:54:58.101Z,926.57
2017-03-15T08:56:12.345Z,926.56
2017-03-15T08:57:25.747Z,926.54
2017-03-15T08:58:39.708Z,926.57
2017-03-15T08:59:53.150Z,926.62
2017-03-15T09:01:06.572Z,926.61
2017-03-15T09:02:20.536Z,926.63
2017-03-15T09:03:34.529Z,926.65
2017-03-15T09:04:47.933Z,926.61
2017-03-15T09:06:01.331Z,926.65
2017-03-15T09:07:15.309Z,926.68
2017-03-15T09:08:28.716Z,926.68
2017-03-15T09:09:42.104Z,926.72
2017-03-15T09:10:56.063Z,926.7
2017-03-15T09:12:10.030Z,926.69
2017-03-15T09:13:23.434Z,926.67
2017-03-15T09:14:37.444Z,926.69
2017-03-15T09:15:50.881Z,926.69
2017-03-15T09:17:04.846Z,926.72
2017-03-15T09:18:18.284Z,926.71
2017-03-15T09:19:32.242Z,926.71
2017-03-15T09:20:46.222Z,926.75
2017-03-15T09:21:59.617Z,926.74
2017-03-15T09:23:13.026Z,926.76
2017-03-15T09:24:26.979Z,926.76
2017-03-15T09:25:40.956Z,926.77
2017-03-15T09:26:54.956Z,926.78
2017-03-15T09:28:08.947Z,926.8
2017-03-15T09:29:21.786Z,926.87
2017-03-15T09:30:35.791Z,926.87
2017-03-15T09:31:49.210Z,926.89
2017-03-15T09:33:03.161Z,926.94
2017-03-15T09:34:17.128Z,927
2017-03-15T09:35:29.981Z,926.97
2017-03-15T09:36:42.842Z,926.96
2017-03-15T09:37:56.250Z,926.98
2017-03-15T09:39:10.193Z,927
2017-03-15T09:40:24.176Z,927.02
2017-03-15T09:41:38.149Z,927.03
2017-03-15T09:42:52.098Z,927.07
2017-03-15T09:44:06.115Z,927.08
2017-03-15T09:45:20.106Z,927.04
2017-03-15T09:46:32.380Z,927.04
2017-03-15T09:47:45.837Z,927.06
2017-03-15T09:48:59.255Z,927.07
2017-03-15T09:50:13.282Z,927.07
2017-03-15T09:51:26.697Z,927.12
2017-03-15T09:52:40.111Z,927.1
2017-03-15T09:53:52.968Z,927.11
2017-03-15T09:55:05.852Z,927.16
2017-03-15T09:56:19.271Z,927.19
2017-03-15T09:57:33.272Z,927.2
2017-03-15T09:58:46.126Z,927.21
2017-03-15T09:59:58.989Z,927.21
2017-03-15T10:01:12.978Z,927.22
2017-03-15T10:02:26.934Z,927.2
2017-03-15T10:03:40.377Z,927.2
2017-03-15T10:04:54.336Z,927.29
2017-03-15T10:06:07.189Z,927.3
2017-03-15T10:07:20.568Z,927.28
2017-03-15T10:08:34.519Z,927.36
2017-03-15T10:09:48.547Z,927.39
2017-03-15T10:11:02.535Z,927.35
2017-03-15T10:12:15.965Z,927.35
2017-03-15T10:13:29.388Z,927.4
2017-03-15T10:14:42.808Z,927.42
2017-03-15T10:15:56.232Z,927.43
2017-03-15T10:17:09.651Z,927.39
2017-03-15T10:18:23.601Z,927.41
2017-03-15T10:19:37.576Z,927.42
2017-03-15T10:20:50.415Z,927.43
2017-03-15T10:22:04.391Z,927.36
2017-03-15T10:23:17.807Z,927.36
2017-03-15T10:24:30.692Z,927.44
2017-03-15T10:25:44.668Z,927.4
2017-03-15T10:26:58.688Z,927.44
2017-03-15T10:28:12.669Z,927.46
2017-03-15T10:29:26.099Z,927.43
2017-03-15T10:30:38.951Z,927.49
2017-03-15T10:31:52.909Z,927.45
2017-03-15T10:33:06.316Z,927.51
2017-03-15T10:34:20.349Z,927.52
2017-03-15T10:35:33.762Z,927.51
2017-03-15T10:36:47.740Z,927.43
2017-03-15T10:38:01.696Z,927.57
2017-03-15T10:39:15.143Z,927.62
2017-03-15T10:40:29.125Z,927.62
2017-03-15T10:41:42.537Z,927.61
2017-03-15T10:42:55.947Z,927.55
2017-03-15T10:44:08.237Z,927.63
2017-03-15T10:45:22.192Z,927.65
2017-03-15T10:46:35.579Z,927.62
2017-03-15T10:47:49.564Z,927.56
2017-03-15T10:49:02.971Z,927.52
2017-03-15T10:50:16.959Z,927.62
2017-03-15T10:51:30.929Z,927.56
2017-03-15T10:52:44.333Z,927.62
2017-03-15T10:53:57.195Z,927.62
2017-03-15T10:55:11.202Z,927.61
2017-03-15T10:56:24.621Z,927.69
2017-03-15T10:57:38.102Z,927.67
2017-03-15T10:58:51.576Z,927.68
2017-03-15T11:00:04.998Z,927.74
2017-03-15T11:01:19.008Z,927.75
2017-03-15T11:02:33.002Z,927.72
2017-03-15T11:03:47.002Z,927.78
2017-03-15T11:05:00.406Z,927.77
2017-03-15T11:06:14.377Z,927.77
2017-03-15T11:07:28.342Z,927.85
2017-03-15T11:08:41.722Z,927.82
2017-03-15T11:09:55.778Z,927.74
2017-03-15T11:11:09.213Z,927.83
2017-03-15T11:12:22.638Z,927.88
2017-03-15T11:13:35.565Z,927.84
2017-03-15T11:14:50.085Z,927.86
2017-03-15T11:16:03.489Z,927.96
2017-03-15T11:17:17.454Z,927.93
2017-03-15T11:18:31.427Z,927.89
2017-03-15T11:19:45.540Z,927.89
2017-03-15T11:20:58.923Z,927.8
2017-03-15T11:22:12.907Z,927.86
2017-03-15T11:23:26.881Z,927.84
2017-03-15T11:24:40.892Z,927.93
2017-03-15T11:25:54.264Z,927.89
2017-03-15T11:27:07.120Z,927.92
2017-03-15T11:28:19.968Z,927.89
2017-03-15T11:29:33.382Z,927.91
2017-03-15T11:30:47.321Z,928.02
2017-03-15T11:32:00.154Z,928.03
2017-03-15T11:33:13.574Z,928
2017-03-15T11:34:27.935Z,928.01
2017-03-15T11:35:40.770Z,928.01
2017-03-15T11:36:54.741Z,928.04
2017-03-15T11:38:08.152Z,928.07
2017-03-15T11:39:22.112Z,928.01
2017-03-15T11:40:35.509Z,927.97
2017-03-15T11:41:49.490Z,928.05
2017-03-15T11:43:02.881Z,928.14
2017-03-15T11:44:16.848Z,928.03
2017-03-15T11:45:30.279Z,928.09
2017-03-15T11:46:43.739Z,928.08
2017-03-15T11:47:56.594Z,928.13
2017-03-15T11:49:10.093Z,928.14
2017-03-15T11:50:23.491Z,928.07
2017-03-15T11:51:36.977Z,928.02
2017-03-15T11:52:50.395Z,928.09
2017-03-15T11:54:02.685Z,928.13
2017-03-15T11:55:14.953Z,928.13
2017-03-15T11:56:28.369Z,928.06
2017-03-15T11:57:42.343Z,928.19
2017-03-15T11:58:55.813Z,928.08
2017-03-15T12:00:09.238Z,928.08
2017-03-15T12:01:23.262Z,928.16
2017-03-15T12:02:36.675Z,928.18
2017-03-15T12:03:49.541Z,928.17
2017-03-15T12:05:02.924Z,928.17
2017-03-15T12:06:16.337Z,928.17
2017-03-15T12:07:31.286Z,928.11
2017-03-15T12:09:02.178Z,928.12
2017-03-15T12:10:16.198Z,928.11
2017-03-15T12:11:30.176Z,928.16
2017-03-15T12:12:43.583Z,928.18
2017-03-15T12:13:56.442Z,928.11
2017-03-15T12:15:08.151Z,928.16
2017-03-15T12:16:21.019Z,928.04
2017-03-15T12:17:34.430Z,928.08
2017-03-15T12:18:48.390Z,928.08
2017-03-15T12:20:02.364Z,928
2017-03-15T12:21:15.752Z,928.02
2017-03-15T12:22:29.181Z,927.94
2017-03-15T12:23:42.604Z,927.97
2017-03-15T12:24:55.998Z,928.03
2017-03-15T12:26:09.410Z,927.98
2017-03-15T12:27:23.391Z,928
2017-03-15T12:28:56.579Z,928
2017-03-15T12:30:09.972Z,927.99
2017-03-15T12:31:23.632Z,928.01
2017-03-15T12:32:37.656Z,927.93
2017-03-15T12:33:50.544Z,928.02
2017-03-15T12:35:03.975Z,927.92
2017-03-15T12:36:17.943Z,928.01
2017-03-15T12:37:31.393Z,927.87
2017-03-15T12:38:44.813Z,928.09
2017-03-15T12:39:58.205Z,928
2017-03-15T12:41:11.079Z,928
2017-03-15T12:42:25.097Z,928
2017-03-15T12:43:38.507Z,928.05
2017-03-15T12:44:52.497Z,927.99
2017-03-15T12:46:06.456Z,928.03
2017-03-15T12:47:19.882Z,927.98
2017-03-15T12:48:33.868Z,928.04
2017-03-15T12:49:47.291Z,928.03
2017-03-15T12:51:00.702Z,928
2017-03-15T12:52:14.694Z,928.02
2017-03-15T12:53:28.666Z,927.93
2017-03-15T12:54:41.701Z,927.97
2017-03-15T12:55:55.670Z,927.97
2017-03-15T12:57:09.638Z,928.02
2017-03-15T12:58:23.073Z,928.01
2017-03-15T12:59:37.042Z,928.06
2017-03-15T13:00:49.877Z,927.99
2017-03-15T13:02:03.322Z,927.97
2017-03-15T13:03:17.301Z,927.93
2017-03-15T13:04:30.173Z,927.97
2017-03-15T13:05:44.156Z,927.94
2017-03-15T13:06:57.001Z,927.94
2017-03-15T13:08:09.840Z,927.97
2017-03-15T13:09:23.789Z,927.94
2017-03-15T13:10:37.218Z,927.97
2017-03-15T13:11:50.654Z,927.97
2017-03-15T13:13:04.645Z,927.98
2017-03-15T13:14:17.484Z,927.89
2017-03-15T13:15:30.887Z,927.97
2017-03-15T13:16:44.295Z,927.94
2017-03-15T13:17:57.137Z,927.89
2017-03-15T13:19:09.995Z,927.91
2017-03-15T13:20:23.964Z,927.87
2017-03-15T13:21:37.403Z,927.91
2017-03-15T13:22:50.279Z,927.88
2017-03-15T13:24:03.679Z,927.88
2017-03-15T13:25:17.664Z,927.88
2017-03-15T13:26:31.130Z,927.8
2017-03-15T13:27:44.160Z,927.76
2017-03-15T13:28:57.046Z,927.84
2017-03-15T13:30:11.034Z,927.83
2017-03-15T13:31:24.485Z,927.77
2017-03-15T13:32:38.492Z,927.84
2017-03-15T13:33:51.924Z,927.85
2017-03-15T13:35:05.330Z,927.84
2017-03-15T13:36:19.303Z,927.79
2017-03-15T13:37:33.294Z,927.76
2017-03-15T13:38:47.276Z,927.78
2017-03-15T13:40:00.152Z,927.8
2017-03-15T13:41:13.009Z,927.79
2017-03-15T13:42:26.405Z,927.78
2017-03-15T13:43:39.918Z,927.79
2017-03-15T13:44:53.318Z,927.81
2017-03-15T13:46:07.316Z,927.8
2017-03-15T13:47:20.224Z,927.8
2017-03-15T13:48:34.228Z,927.75
2017-03-15T13:49:47.660Z,927.69
2017-03-15T13:51:01.667Z,927.76
2017-03-15T13:52:14.530Z,927.79
2017-03-15T13:53:27.963Z,927.81
2017-03-15T13:54:41.379Z,927.8
2017-03-15T13:55:54.801Z,927.66
2017-03-15T13:57:08.226Z,927.78
2017-03-15T13:58:21.105Z,927.78
2017-03-15T13:59:35.103Z,927.75
2017-03-15T14:00:49.093Z,927.76
2017-03-15T14:02:02.505Z,927.77
2017-03-15T14:03:15.904Z,927.75
2017-03-15T14:04:28.784Z,927.7
2017-03-15T14:05:42.784Z,927.72
2017-03-15T14:06:56.215Z,927.72
2017-03-15T14:08:10.200Z,927.69
2017-03-15T14:09:23.628Z,927.68
2017-03-15T14:10:37.042Z,927.65
2017-03-15T14:11:51.004Z,927.65
2017-03-15T14:13:04.408Z,927.69
2017-03-15T14:14:18.428Z,927.62
2017-03-15T14:15:31.889Z,927.72
2017-03-15T14:16:45.863Z,927.68
2017-03-15T14:17:59.880Z,927.63
2017-03-15T14:19:13.299Z,927.67
2017-03-15T14:20:27.296Z,927.67
2017-03-15T14:21:41.289Z,927.67
2017-03-15T14:22:53.611Z,927.67
2017-03-15T14:24:07.597Z,927.64
2017-03-15T14:25:21.019Z,927.63
2017-03-15T14:26:35.019Z,927.64
2017-03-15T14:27:48.404Z,927.63
2017-03-15T14:29:01.272Z,927.57
2017-03-15T14:30:14.694Z,927.62
2017-03-15T14:31:27.545Z,927.49
2017-03-15T14:32:40.967Z,927.56
2017-03-15T14:33:54.935Z,927.57
2017-03-15T14:35:08.946Z,927.59
2017-03-15T14:36:22.930Z,927.6
2017-03-15T14:37:36.344Z,927.57
2017-03-15T14:38:49.911Z,927.54
2017-03-15T14:40:03.335Z,927.55
2017-03-15T14:41:15.606Z,927.51
2017-03-15T14:42:29.023Z,927.47
2017-03-15T14:43:43.018Z,927.5
2017-03-15T14:44:56.448Z,927.51
2017-03-15T14:46:10.433Z,927.5
2017-03-15T14:47:23.521Z,927.49
2017-03-15T14:48:37.508Z,927.45
2017-03-15T14:49:50.937Z,927.49
2017-03-15T14:51:04.335Z,927.51
2017-03-15T14:52:18.307Z,927.45
2017-03-15T14:53:32.299Z,927.46
2017-03-15T14:54:46.284Z,927.45
2017-03-15T14:56:00.292Z,927.39
2017-03-15T14:57:12.616Z,927.41
2017-03-15T14:58:26.619Z,927.47
2017-03-15T14:59:40.043Z,927.37
2017-03-15T15:00:52.364Z,927.39
2017-03-15T15:02:06.348Z,927.39
2017-03-15T15:03:19.773Z,927.33
2017-03-15T15:04:33.202Z,927.35
2017-03-15T15:05:46.667Z,927.29
2017-03-15T15:07:00.103Z,927.29
2017-03-15T15:08:13.521Z,927.32
2017-03-15T15:09:26.983Z,927.32
2017-03-15T15:10:41.413Z,927.26
2017-03-15T15:11:54.814Z,927.29
2017-03-15T15:13:08.232Z,927.24
2017-03-15T15:14:22.215Z,927.25
2017-03-15T15:15:36.217Z,927.24
2017-03-15T15:16:50.350Z,927.17
2017-03-15T15:18:03.741Z,927.19
2017-03-15T15:19:17.149Z,927.16